createdAt,value
2018-06-14T00:00:02.750Z,8.53
2018-06-14T00:02:31.093Z,8.43
2018-06-14T00:04:59.401Z,7.90
2018-06-14T00:07:27.797Z,8.57
2018-06-14T00:09:56.133Z,8.40
2018-06-14T00:12:24.443Z,9.85
2018-06-14T00:14:52.772Z,9.57
2018-06-14T00:17:21.127Z,8.90
2018-06-14T00:19:49.497Z,8.73
2018-06-14T00:22:18.041Z,9.07
2018-06-14T00:24:46.381Z,8.63
2018-06-14T00:27:14.787Z,8.90
2018-06-14T00:29:43.375Z,9.00
2018-06-14T00:32:11.868Z,9.77
2018-06-14T00:34:40.280Z,9.93
2018-06-14T00:37:08.646Z,9.60
2018-06-14T00:39:37.113Z,10.43
2018-06-14T00:42:05.423Z,9.70
2018-06-14T00:44:34.129Z,9.63
2018-06-14T00:47:02.498Z,10.13
2018-06-14T00:49:30.795Z,10.03
2018-06-14T00:51:59.281Z,9.93
2018-06-14T00:54:28.002Z,9.97
2018-06-14T00:57:07.516Z,10.80
2018-06-14T00:59:35.891Z,10.37
2018-06-14T01:02:04.379Z,10.20
2018-06-14T01:04:32.741Z,10.80
2018-06-14T01:07:01.122Z,11.00
2018-06-14T01:09:29.497Z,10.80
2018-06-14T01:11:57.957Z,11.50
2018-06-14T01:14:26.309Z,10.53
2018-06-14T01:16:54.597Z,10.57
2018-06-14T01:19:22.935Z,11.47
2018-06-14T01:21:51.230Z,11.57
2018-06-14T01:24:19.536Z,11.97
2018-06-14T01:26:47.850Z,10.87
2018-06-14T01:29:16.389Z,11.87
2018-06-14T01:31:45.346Z,12.23
2018-06-14T01:34:13.840Z,15.28
2018-06-14T01:36:42.235Z,12.60
2018-06-14T01:39:10.741Z,13.30
2018-06-14T01:41:39.178Z,12.03
2018-06-14T01:44:07.497Z,11.57
2018-06-14T01:46:35.866Z,12.80
2018-06-14T01:49:04.346Z,12.53
2018-06-14T01:51:32.745Z,12.67
2018-06-14T01:54:01.587Z,12.90
2018-06-14T01:56:30.021Z,12.77
2018-06-14T01:58:58.425Z,13.67
2018-06-14T02:01:26.753Z,12.97
2018-06-14T02:03:55.150Z,12.77
2018-06-14T02:06:24.192Z,12.67
2018-06-14T02:08:52.477Z,13.20
2018-06-14T02:11:20.778Z,12.80
2018-06-14T02:13:49.093Z,13.90
2018-06-14T02:16:17.518Z,13.07
2018-06-14T02:18:46.512Z,13.63
2018-06-14T02:21:14.830Z,12.20
2018-06-14T02:23:43.207Z,13.97
2018-06-14T02:26:11.535Z,14.23
2018-06-14T02:28:39.995Z,13.50
2018-06-14T02:31:08.342Z,13.90
2018-06-14T02:33:36.696Z,14.83
2018-06-14T02:36:05.146Z,14.93
2018-06-14T02:38:33.496Z,14.47
2018-06-14T02:41:01.578Z,14.63
2018-06-14T02:43:29.881Z,14.40
2018-06-14T02:45:58.189Z,16.07
2018-06-14T02:48:26.585Z,14.10
2018-06-14T02:50:54.930Z,14.30
2018-06-14T02:53:23.237Z,15.13
2018-06-14T02:55:51.652Z,14.53
2018-06-14T02:58:19.971Z,15.30
2018-06-14T03:00:48.329Z,15.60
2018-06-14T03:03:16.889Z,15.40
2018-06-14T03:05:45.445Z,15.53
2018-06-14T03:08:13.794Z,15.10
2018-06-14T03:10:42.257Z,15.13
2018-06-14T03:13:10.556Z,15.13
2018-06-14T03:15:38.873Z,14.53
2018-06-14T03:18:07.287Z,14.50
2018-06-14T03:20:35.697Z,16.57
2018-06-14T03:23:04.016Z,15.23
2018-06-14T03:25:32.194Z,15.40
2018-06-14T03:28:01.241Z,14.37
2018-06-14T03:30:29.558Z,14.90
2018-06-14T03:32:58.044Z,15.77
2018-06-14T03:35:26.393Z,15.73
2018-06-14T03:37:55.093Z,14.77
2018-06-14T03:40:23.499Z,15.50
2018-06-14T03:42:51.922Z,14.73
2018-06-14T03:45:21.573Z,15.23
2018-06-14T03:47:50.844Z,14.53
2018-06-14T03:50:19.158Z,15.10
2018-06-14T03:52:47.610Z,14.73
2018-06-14T03:55:16.026Z,15.50
2018-06-14T03:57:44.325Z,14.07
2018-06-14T04:00:12.642Z,14.87
2018-06-14T04:02:41.035Z,15.50
2018-06-14T04:05:10.169Z,14.37
2018-06-14T04:07:38.635Z,13.77
2018-06-14T04:10:07.713Z,14.67
2018-06-14T04:12:36.124Z,14.10
2018-06-14T04:15:04.538Z,14.60
2018-06-14T04:17:32.861Z,14.47
2018-06-14T04:20:01.209Z,14.07
2018-06-14T04:22:29.541Z,14.23
2018-06-14T04:24:57.990Z,14.70
2018-06-14T04:27:26.364Z,13.30
2018-06-14T04:29:54.745Z,14.67
2018-06-14T04:32:23.262Z,12.90
2018-06-14T04:34:51.706Z,12.60
2018-06-14T04:37:20.034Z,14.40
2018-06-14T04:39:48.629Z,12.63
2018-06-14T04:42:16.995Z,13.00
2018-06-14T04:44:45.392Z,13.27
2018-06-14T04:47:13.709Z,13.13
2018-06-14T04:49:42.124Z,13.93
2018-06-14T04:52:10.449Z,13.80
2018-06-14T04:54:38.949Z,14.20
2018-06-14T04:57:07.332Z,13.47
2018-06-14T04:59:35.622Z,14.30
2018-06-14T05:02:03.933Z,13.60
2018-06-14T05:04:32.209Z,13.53
2018-06-14T05:07:01.038Z,13.47
2018-06-14T05:09:29.432Z,13.97
2018-06-14T05:11:57.799Z,14.17
2018-06-14T05:14:26.118Z,12.83
2018-06-14T05:16:54.660Z,13.97
2018-06-14T05:19:22.992Z,13.87
2018-06-14T05:21:51.825Z,13.87
2018-06-14T05:24:20.155Z,14.27
2018-06-14T05:26:48.510Z,13.70
2018-06-14T05:29:16.985Z,14.00
2018-06-14T05:31:45.321Z,14.40
2018-06-14T05:34:13.629Z,14.00
2018-06-14T05:36:41.951Z,14.23
2018-06-14T05:39:11.899Z,15.30
2018-06-14T05:41:40.830Z,14.13
2018-06-14T05:44:09.162Z,13.10
2018-06-14T05:46:37.617Z,14.33
2018-06-14T05:49:06.330Z,13.60
2018-06-14T05:51:34.643Z,14.60
2018-06-14T05:54:03.162Z,14.80
2018-06-14T05:56:31.486Z,14.30
2018-06-14T05:59:01.251Z,13.70
2018-06-14T06:01:34.804Z,13.13
2018-06-14T06:04:03.117Z,12.93
2018-06-14T06:06:31.455Z,12.07
2018-06-14T06:08:59.813Z,11.23
2018-06-14T06:11:28.966Z,13.03
2018-06-14T06:13:58.503Z,11.90
2018-06-14T06:16:26.952Z,12.10
2018-06-14T06:18:55.018Z,12.47
2018-06-14T06:21:23.061Z,10.97
2018-06-14T06:23:51.369Z,11.23
2018-06-14T06:26:19.484Z,11.70
2018-06-14T06:28:47.821Z,11.13
2018-06-14T06:31:16.458Z,10.27
2018-06-14T06:33:44.754Z,9.97
2018-06-14T06:36:13.095Z,10.10
2018-06-14T06:38:41.923Z,10.77
2018-06-14T06:41:10.218Z,10.77
2018-06-14T06:43:38.929Z,11.03
2018-06-14T06:46:08.088Z,10.43
2018-06-14T06:48:36.438Z,11.03
2018-06-14T06:51:04.722Z,10.80
2018-06-14T06:53:33.401Z,10.97
2018-06-14T06:56:01.685Z,10.37
2018-06-14T06:58:30.957Z,10.37
2018-06-14T07:00:59.250Z,8.93
2018-06-14T07:03:27.588Z,8.57
2018-06-14T07:05:55.948Z,8.03
2018-06-14T07:08:24.426Z,8.53
2018-06-14T07:10:52.742Z,7.20
2018-06-14T07:13:21.062Z,8.10
2018-06-14T07:15:49.456Z,7.33
2018-06-14T07:18:17.757Z,8.10
2018-06-14T07:20:46.017Z,8.07
2018-06-14T07:23:14.679Z,7.33
2018-06-14T07:25:42.953Z,7.23
2018-06-14T07:28:11.249Z,8.33
2018-06-14T07:30:39.536Z,8.90
2018-06-14T07:33:07.813Z,7.50
2018-06-14T07:35:36.117Z,7.87
2018-06-14T07:38:04.180Z,7.10
2018-06-14T07:40:32.621Z,7.07
2018-06-14T07:43:01.025Z,7.97
2018-06-14T07:45:30.018Z,7.60
2018-06-14T07:47:58.324Z,7.47
2018-06-14T07:50:26.701Z,7.17
2018-06-14T07:52:55.122Z,7.67
2018-06-14T07:55:23.433Z,8.07
2018-06-14T07:57:51.763Z,7.70
2018-06-14T08:00:20.094Z,6.30
2018-06-14T08:02:48.384Z,6.33
2018-06-14T08:05:16.727Z,6.10
2018-06-14T08:07:45.042Z,6.33
2018-06-14T08:10:13.354Z,5.77
2018-06-14T08:12:41.750Z,4.97
2018-06-14T08:15:10.133Z,5.50
2018-06-14T08:17:38.469Z,4.53
2018-06-14T08:20:06.958Z,5.37
2018-06-14T08:22:35.277Z,4.97
2018-06-14T08:25:03.557Z,5.87
2018-06-14T08:27:31.802Z,6.10
2018-06-14T08:30:00.149Z,5.20
2018-06-14T08:32:28.488Z,5.83
2018-06-14T08:34:56.817Z,5.83
2018-06-14T08:37:30.423Z,5.47
2018-06-14T08:39:58.921Z,5.30
2018-06-14T08:42:27.257Z,5.10
2018-06-14T08:44:56.808Z,4.70
2018-06-14T08:47:25.193Z,5.33
2018-06-14T08:49:53.526Z,4.77
2018-06-14T08:52:21.890Z,5.27
2018-06-14T08:54:50.213Z,5.13
2018-06-14T08:57:18.569Z,5.03
2018-06-14T08:59:46.745Z,4.40
2018-06-14T09:02:16.169Z,4.30
2018-06-14T09:04:44.541Z,4.83
2018-06-14T09:07:12.946Z,4.43
2018-06-14T09:09:41.293Z,5.70
2018-06-14T09:12:09.609Z,4.87
2018-06-14T09:14:38.415Z,4.90
2018-06-14T09:17:06.797Z,4.23
2018-06-14T09:19:35.181Z,4.53
2018-06-14T09:22:03.521Z,4.47
2018-06-14T09:24:31.961Z,5.10
2018-06-14T09:27:00.417Z,4.50
2018-06-14T09:29:28.729Z,4.60
2018-06-14T09:31:56.829Z,4.43
2018-06-14T09:34:25.160Z,5.70
2018-06-14T09:36:53.439Z,5.70
2018-06-14T09:39:21.760Z,6.70
2018-06-14T09:41:50.033Z,5.40
2018-06-14T09:44:19.344Z,5.07
2018-06-14T09:46:47.594Z,5.30
2018-06-14T09:49:17.081Z,5.77
2018-06-14T09:51:47.113Z,5.20
2018-06-14T09:54:15.449Z,5.93
2018-06-14T09:56:44.137Z,6.10
2018-06-14T09:59:12.481Z,5.97
2018-06-14T10:01:40.818Z,5.57
2018-06-14T10:04:09.121Z,5.60
2018-06-14T10:06:37.476Z,6.73
2018-06-14T10:09:07.940Z,6.07
2018-06-14T10:11:37.539Z,5.10
2018-06-14T10:14:05.857Z,4.63
2018-06-14T10:16:35.106Z,5.07
2018-06-14T10:19:03.765Z,4.93
2018-06-14T10:21:32.112Z,5.30
2018-06-14T10:24:00.393Z,5.00
2018-06-14T10:26:28.742Z,5.20
2018-06-14T10:28:57.069Z,5.20
2018-06-14T10:31:25.360Z,5.17
2018-06-14T10:33:53.717Z,5.13
2018-06-14T10:36:22.057Z,5.87
2018-06-14T10:38:50.361Z,5.30
2018-06-14T10:41:18.640Z,4.57
2018-06-14T10:43:47.054Z,4.77
2018-06-14T10:46:15.376Z,4.77
2018-06-14T10:48:43.889Z,5.03
2018-06-14T10:51:12.250Z,4.83
2018-06-14T10:53:40.575Z,5.30
2018-06-14T10:56:08.913Z,5.50
2018-06-14T10:58:37.351Z,5.67
2018-06-14T11:01:05.651Z,5.60
2018-06-14T11:03:35.127Z,5.70
2018-06-14T11:06:03.518Z,5.70
2018-06-14T11:08:31.802Z,6.33
2018-06-14T11:11:00.105Z,6.10
2018-06-14T11:13:28.410Z,6.07
2018-06-14T11:15:56.718Z,6.00
2018-06-14T11:18:25.099Z,5.90
2018-06-14T11:20:54.359Z,5.90
2018-06-14T11:23:22.697Z,6.37
2018-06-14T11:25:51.034Z,6.20
2018-06-14T11:28:19.460Z,7.03
2018-06-14T11:30:47.773Z,6.10
2018-06-14T11:33:16.116Z,6.30
2018-06-14T11:35:44.646Z,6.10
2018-06-14T11:38:12.955Z,6.17
2018-06-14T11:40:41.297Z,6.47
2018-06-14T11:43:09.621Z,6.07
2018-06-14T11:45:37.953Z,6.20
2018-06-14T11:48:06.261Z,6.70
2018-06-14T11:50:34.749Z,6.83
2018-06-14T11:53:03.133Z,7.70
2018-06-14T11:55:31.527Z,7.73
2018-06-14T11:57:59.901Z,7.40
2018-06-14T12:00:28.210Z,7.27
2018-06-14T12:02:56.558Z,8.00
2018-06-14T12:05:24.592Z,7.70
2018-06-14T12:07:52.942Z,6.97
2018-06-14T12:10:21.315Z,7.80
2018-06-14T12:12:49.654Z,7.33
2018-06-14T12:15:18.061Z,7.83
2018-06-14T12:17:46.387Z,7.90
2018-06-14T12:20:15.433Z,8.20
2018-06-14T12:22:43.850Z,8.17
2018-06-14T12:25:12.197Z,7.63
2018-06-14T12:27:40.501Z,8.23
2018-06-14T12:30:08.805Z,8.30
2018-06-14T12:32:37.129Z,7.90
2018-06-14T12:35:05.477Z,7.53
2018-06-14T12:37:33.795Z,7.73
2018-06-14T12:40:02.132Z,7.60
2018-06-14T12:42:30.617Z,7.53
2018-06-14T12:44:58.645Z,6.63
2018-06-14T12:47:27.091Z,6.87
2018-06-14T12:49:55.573Z,6.90
2018-06-14T12:52:23.997Z,6.70
2018-06-14T12:54:52.266Z,6.83
2018-06-14T12:57:20.666Z,7.00
2018-06-14T12:59:48.704Z,6.27
2018-06-14T13:02:17.011Z,7.10
2018-06-14T13:04:45.461Z,6.90
2018-06-14T13:07:13.871Z,6.90
2018-06-14T13:09:42.294Z,6.23
2018-06-14T13:12:10.678Z,6.93
2018-06-14T13:14:39.139Z,6.50
2018-06-14T13:17:07.487Z,6.23
2018-06-14T13:19:36.169Z,6.07
2018-06-14T13:22:05.378Z,6.67
2018-06-14T13:24:41.597Z,6.30
2018-06-14T13:27:11.821Z,6.50
2018-06-14T13:29:40.578Z,6.47
2018-06-14T13:32:09.084Z,6.57
2018-06-14T13:34:37.996Z,7.00
2018-06-14T13:37:06.325Z,6.93
2018-06-14T13:39:34.717Z,6.43
2018-06-14T13:42:03.433Z,6.90
2018-06-14T13:44:31.749Z,6.10
2018-06-14T13:47:00.240Z,6.73
2018-06-14T13:49:29.075Z,7.77
2018-06-14T13:51:57.417Z,7.37
2018-06-14T13:54:25.810Z,7.53
2018-06-14T13:56:54.221Z,7.10
2018-06-14T13:59:22.499Z,7.07
2018-06-14T14:01:50.824Z,6.57
2018-06-14T14:04:19.182Z,7.07
2018-06-14T14:06:47.511Z,7.20
2018-06-14T14:09:16.013Z,7.03
2018-06-14T14:11:44.378Z,7.07
2018-06-14T14:14:12.725Z,7.03
2018-06-14T14:16:41.201Z,6.87
2018-06-14T14:19:09.990Z,6.23
2018-06-14T14:21:38.206Z,6.67
2018-06-14T14:24:06.954Z,7.30
2018-06-14T14:26:35.332Z,7.17
2018-06-14T14:29:03.626Z,7.47
2018-06-14T14:31:32.042Z,7.50
2018-06-14T14:34:00.334Z,7.03
2018-06-14T14:36:28.694Z,6.63
2018-06-14T14:38:57.336Z,7.10
2018-06-14T14:41:25.689Z,6.60
2018-06-14T14:43:54.169Z,7.17
2018-06-14T14:46:22.597Z,7.03
2018-06-14T14:48:51.014Z,7.23
2018-06-14T14:51:19.293Z,8.37
2018-06-14T14:53:47.738Z,7.50
2018-06-14T14:56:16.073Z,7.43
2018-06-14T14:58:44.361Z,7.63
2018-06-14T15:01:12.827Z,7.90
2018-06-14T15:03:41.161Z,7.60
2018-06-14T15:06:09.493Z,8.43
2018-06-14T15:08:37.895Z,7.37
2018-06-14T15:11:05.961Z,7.87
2018-06-14T15:13:34.030Z,8.17
2018-06-14T15:16:02.085Z,8.97
2018-06-14T15:18:30.435Z,9.17
2018-06-14T15:20:58.826Z,10.20
2018-06-14T15:23:28.237Z,10.03
2018-06-14T15:25:57.241Z,10.20
2018-06-14T15:28:25.911Z,10.73
2018-06-14T15:30:54.354Z,11.47
2018-06-14T15:33:22.657Z,11.13
2018-06-14T15:35:50.990Z,11.80
2018-06-14T15:38:19.522Z,11.17
2018-06-14T15:40:47.885Z,11.13
2018-06-14T15:43:16.255Z,11.43
2018-06-14T15:45:44.640Z,10.20
2018-06-14T15:48:12.982Z,9.23
2018-06-14T15:50:41.357Z,11.60
2018-06-14T15:53:09.674Z,10.87
2018-06-14T15:56:02.575Z,11.50
2018-06-14T15:58:31.863Z,12.23
2018-06-14T16:01:00.291Z,12.30
2018-06-14T16:03:28.597Z,13.87
2018-06-14T16:05:56.961Z,12.77
2018-06-14T16:08:25.257Z,14.50
2018-06-14T16:10:54.119Z,13.10
2018-06-14T16:13:22.495Z,14.47
2018-06-14T16:15:50.963Z,14.17
2018-06-14T16:18:19.300Z,14.07
2018-06-14T16:20:48.693Z,14.07
2018-06-14T16:23:17.089Z,14.97
2018-06-14T16:25:45.530Z,14.33
2018-06-14T16:28:14.112Z,16.07
2018-06-14T16:30:42.580Z,15.17
2018-06-14T16:33:10.985Z,15.40
2018-06-14T16:35:39.357Z,16.83
2018-06-14T16:38:07.681Z,14.27
2018-06-14T16:40:35.991Z,16.17
2018-06-14T16:43:04.305Z,15.13
2018-06-14T16:45:32.681Z,15.57
2018-06-14T16:48:01.193Z,15.00
2018-06-14T16:50:30.627Z,16.40
2018-06-14T16:52:58.937Z,15.17
2018-06-14T16:55:27.289Z,15.70
2018-06-14T16:57:55.773Z,15.10
2018-06-14T17:00:24.381Z,15.83
2018-06-14T17:02:52.721Z,14.93
2018-06-14T17:05:21.207Z,14.03
2018-06-14T17:07:49.393Z,15.27
2018-06-14T17:10:17.734Z,15.83
2018-06-14T17:12:46.093Z,15.67
2018-06-14T17:15:14.422Z,15.10
2018-06-14T17:17:43.715Z,15.23
2018-06-14T17:20:12.870Z,16.50
2018-06-14T17:22:41.303Z,16.23
2018-06-14T17:25:10.418Z,17.47
2018-06-14T17:27:38.759Z,16.63
2018-06-14T17:30:07.994Z,18.30
2018-06-14T17:32:36.767Z,18.73
2018-06-14T17:35:05.301Z,17.77
2018-06-14T17:37:33.821Z,17.57
2018-06-14T17:40:01.874Z,16.87
2018-06-14T17:42:30.234Z,19.13
2018-06-14T17:44:58.699Z,19.27
2018-06-14T17:47:27.098Z,18.43
2018-06-14T17:49:55.502Z,17.43
2018-06-14T17:52:23.821Z,17.17
2018-06-14T17:54:52.142Z,19.17
2018-06-14T17:57:21.482Z,17.77
2018-06-14T17:59:49.976Z,18.53
2018-06-14T18:02:18.329Z,17.23
2018-06-14T18:04:46.709Z,18.47
2018-06-14T18:07:15.601Z,18.57
2018-06-14T18:09:43.925Z,18.33
2018-06-14T18:12:12.278Z,17.70
2018-06-14T18:14:41.275Z,17.13
2018-06-14T18:17:09.660Z,16.87
2018-06-14T18:19:38.191Z,17.70
2018-06-14T18:22:06.541Z,17.60
2018-06-14T18:24:34.861Z,18.13
2018-06-14T18:27:03.334Z,18.10
2018-06-14T18:29:31.664Z,17.03
2018-06-14T18:32:00.421Z,17.40
2018-06-14T18:34:28.874Z,17.03
2018-06-14T18:36:57.257Z,18.87
2018-06-14T18:39:25.581Z,18.17
2018-06-14T18:41:53.918Z,17.43
2018-06-14T18:44:22.305Z,16.90
2018-06-14T18:46:51.157Z,18.17
2018-06-14T18:49:20.265Z,17.53
2018-06-14T18:51:48.561Z,17.10
2018-06-14T18:54:16.877Z,18.70
2018-06-14T18:56:45.234Z,18.57
2018-06-14T18:59:13.685Z,18.30
2018-06-14T19:01:42.033Z,19.40
2018-06-14T19:04:10.381Z,18.50
2018-06-14T19:06:38.829Z,19.40
2018-06-14T19:09:08.563Z,19.33
2018-06-14T19:11:37.074Z,18.67
2018-06-14T19:14:05.454Z,25.37
2018-06-14T19:16:33.757Z,21.47
2018-06-14T19:19:02.070Z,19.33
2018-06-14T19:21:30.352Z,20.20
2018-06-14T19:24:01.032Z,20.40
2018-06-14T19:26:29.383Z,20.10
2018-06-14T19:28:57.629Z,20.40
2018-06-14T19:31:25.897Z,19.77
2018-06-14T19:33:54.489Z,20.20
2018-06-14T19:36:22.829Z,21.80
2018-06-14T19:38:51.154Z,22.57
2018-06-14T19:41:19.489Z,21.60
2018-06-14T19:43:47.983Z,23.20
2018-06-14T19:46:16.282Z,20.77
2018-06-14T19:48:44.621Z,24.20
2018-06-14T19:51:13.038Z,22.73
2018-06-14T19:53:41.766Z,22.87
2018-06-14T19:56:10.278Z,23.50
2018-06-14T19:58:38.582Z,24.07
2018-06-14T20:01:06.982Z,24.87
2018-06-14T20:03:35.497Z,24.97
2018-06-14T20:06:03.830Z,24.40
2018-06-14T20:08:32.185Z,23.80
2018-06-14T20:11:00.517Z,23.50
2018-06-14T20:13:28.888Z,24.20
2018-06-14T20:15:57.191Z,24.30
2018-06-14T20:18:25.677Z,26.70
2018-06-14T20:20:54.052Z,26.63
2018-06-14T20:23:22.341Z,25.17
2018-06-14T20:25:50.677Z,28.30
2018-06-14T20:28:19.069Z,24.60
2018-06-14T20:30:47.421Z,29.33
2018-06-14T20:33:15.454Z,34.88
2018-06-14T20:35:44.570Z,27.40
2018-06-14T20:38:12.913Z,28.47
2018-06-14T20:40:41.589Z,26.87
2018-06-14T20:43:09.893Z,27.43
2018-06-14T20:45:38.181Z,27.47
2018-06-14T20:48:06.609Z,26.97
2018-06-14T20:50:34.909Z,25.33
2018-06-14T20:53:03.214Z,26.87
2018-06-14T20:55:31.667Z,29.53
2018-06-14T20:57:59.977Z,30.33
2018-06-14T21:00:30.010Z,32.20
2018-06-14T21:02:58.489Z,28.83
2018-06-14T21:05:26.821Z,32.57
2018-06-14T21:07:55.213Z,29.73
2018-06-14T21:10:24.438Z,35.20
2018-06-14T21:12:52.798Z,41.85
2018-06-14T21:15:21.094Z,33.23
2018-06-14T21:17:49.434Z,34.03
2018-06-14T21:20:17.733Z,34.40
2018-06-14T21:22:46.113Z,31.63
2018-06-14T21:25:14.578Z,34.60
2018-06-14T21:27:42.933Z,30.93
2018-06-14T21:30:11.237Z,33.73
2018-06-14T21:32:39.581Z,33.43
2018-06-14T21:35:07.946Z,34.03
2018-06-14T21:37:36.289Z,34.07
2018-06-14T21:40:04.777Z,34.57
2018-06-14T21:42:33.249Z,32.80
2018-06-14T21:45:01.558Z,29.73
2018-06-14T21:47:29.989Z,32.33
2018-06-14T21:49:58.316Z,32.60
2018-06-14T21:52:26.621Z,32.20
2018-06-14T21:54:54.977Z,32.47
2018-06-14T21:57:23.313Z,32.17
2018-06-14T21:59:51.628Z,31.37
2018-06-14T22:02:20.198Z,34.07
2018-06-14T22:04:48.611Z,33.57
2018-06-14T22:07:16.710Z,33.33
2018-06-14T22:09:45.374Z,31.30
2018-06-14T22:12:13.689Z,32.23
2018-06-14T22:14:41.989Z,33.40
2018-06-14T22:17:11.189Z,33.53
2018-06-14T22:19:39.737Z,34.83
2018-06-14T22:22:08.088Z,33.00
2018-06-14T22:24:36.776Z,34.80
2018-06-14T22:27:05.162Z,32.93
2018-06-14T22:29:33.465Z,32.07
2018-06-14T22:32:01.769Z,31.33
2018-06-14T22:34:41.301Z,30.50
2018-06-14T22:37:09.579Z,31.63
2018-06-14T22:39:38.347Z,31.73
2018-06-14T22:42:06.757Z,31.53
2018-06-14T22:44:35.241Z,30.17
2018-06-14T22:47:03.479Z,30.43
2018-06-14T22:49:31.749Z,33.50
2018-06-14T22:53:09.587Z,32.30
2018-06-14T22:55:37.869Z,31.83
2018-06-14T22:58:06.209Z,31.50
2018-06-14T23:01:45.140Z,31.97
2018-06-14T23:04:15.814Z,29.90
2018-06-14T23:06:44.162Z,33.63
2018-06-14T23:10:29.629Z,33.50
2018-06-14T23:12:57.953Z,31.23
2018-06-14T23:15:26.269Z,33.63
2018-06-14T23:17:54.772Z,34.10
2018-06-14T23:20:24.059Z,34.20
2018-06-14T23:22:55.395Z,33.00
2018-06-14T23:25:24.586Z,34.47
2018-06-14T23:27:52.974Z,35.37
2018-06-14T23:30:21.334Z,32.47
2018-06-14T23:32:49.935Z,35.13
2018-06-14T23:35:18.613Z,38.17
2018-06-14T23:37:46.996Z,35.73
2018-06-14T23:40:15.785Z,33.80
2018-06-14T23:42:44.092Z,33.90
2018-06-14T23:45:12.470Z,36.17
2018-06-14T23:47:40.782Z,36.23
2018-06-14T23:50:09.085Z,36.63
2018-06-14T23:52:37.529Z,37.23
2018-06-14T23:55:05.813Z,35.13
2018-06-14T23:57:34.096Z,35.20
